Time;durP1;ratioP1;P1;durP2;ratioP2;P2;SDS_P1;SDS_P2;PMS_P1;PMS_P2;Temp;Humidity;BMP_temperature;BMP_pressure;BME280_temperature;BME280_humidity;BME280_pressure;Samples;Min_cycle;Max_cycle;Signal;HPM_P1;HPM_P2
2023/06/22 00:02:24;;;;;;;9.82;6.45;;;;;;;28.00;50.07;99899.88;4347305;33;34908;-61
2023/06/22 00:04:52;;;;;;;9.65;5.97;;;;;;;28.01;49.94;99919.88;4332464;33;34992;-61
2023/06/22 00:07:19;;;;;;;8.00;5.47;;;;;;;28.00;49.85;99916.31;4332620;33;34518;-61
2023/06/22 00:09:47;;;;;;;10.57;6.15;;;;;;;27.98;49.80;99915.75;4332683;33;33763;-60
2023/06/22 00:12:15;;;;;;;8.40;5.85;;;;;;;27.99;49.99;99925.63;4332467;33;34115;-60
2023/06/22 00:14:42;;;;;;;9.35;5.65;;;;;;;27.99;50.11;99935.78;4332572;33;34334;-61
2023/06/22 00:17:09;;;;;;;10.27;5.95;;;;;;;27.98;50.03;99937.69;4325429;33;33621;-60
2023/06/22 00:19:40;;;;;;;10.73;6.20;;;;;;;27.97;50.00;99920.38;4347175;33;33698;-61
2023/06/22 00:22:07;;;;;;;9.30;5.80;;;;;;;27.97;49.98;99909.41;4347552;33;34076;-60
2023/06/22 00:24:35;;;;;;;9.32;5.97;;;;;;;27.97;49.88;99905.84;4347233;33;34393;-61
2023/06/22 00:27:05;;;;;;;8.27;5.70;;;;;;;27.96;49.78;99905.03;4346370;33;33822;-61
2023/06/22 00:29:32;;;;;;;7.30;5.50;;;;;;;27.96;49.74;99912.41;4347226;33;33962;-61
2023/06/22 00:32:00;;;;;;;10.77;5.55;;;;;;;27.96;49.70;99912.41;4347222;33;34084;-61
2023/06/22 00:34:28;;;;;;;7.40;5.40;;;;;;;27.94;49.67;99920.09;4347169;33;34823;-61
2023/06/22 00:36:55;;;;;;;8.95;5.60;;;;;;;27.94;49.58;99914.59;4347151;33;33573;-60
2023/06/22 00:39:23;;;;;;;12.32;6.25;;;;;;;27.93;49.52;99913.78;4347184;33;33906;-60
2023/06/22 00:41:50;;;;;;;10.35;6.00;;;;;;;27.93;49.57;99924.75;4346960;33;35191;-61
2023/06/22 00:44:18;;;;;;;9.75;5.45;;;;;;;27.93;49.72;99913.78;4347011;33;34540;-61
2023/06/22 00:46:45;;;;;;;9.77;6.10;;;;;;;27.93;49.79;99918.41;4347131;33;33810;-61
2023/06/22 00:49:13;;;;;;;9.68;5.10;;;;;;;27.93;49.80;99923.88;4347141;33;34016;-60
2023/06/22 00:51:47;;;;;;;9.32;5.68;;;;;;;27.93;49.77;99923.88;4333753;33;33731;-60
2023/06/22 00:54:15;;;;;;;7.62;5.37;;;;;;;27.91;49.66;99913.19;4345944;33;34118;-61
2023/06/22 00:56:43;;;;;;;9.35;5.47;;;;;;;27.92;49.45;99914.84;4346997;33;34323;-60
2023/06/22 00:59:12;;;;;;;9.68;5.70;;;;;;;27.90;49.46;99908.78;4333767;33;34076;-61
2023/06/22 01:01:41;;;;;;;9.75;5.53;;;;;;;27.91;49.45;99923.31;4334021;33;32275;-61
2023/06/22 01:04:08;;;;;;;10.63;5.45;;;;;;;27.91;49.31;99909.63;4336351;33;34278;-61
2023/06/22 01:07:04;;;;;;;8.57;5.20;;;;;;;27.90;49.14;99913.44;4332265;33;33794;-60
2023/06/22 01:09:34;;;;;;;10.23;5.43;;;;;;;27.92;49.02;99903.03;4319199;33;33626;-61
2023/06/22 01:12:05;;;;;;;7.73;6.03;;;;;;;27.89;49.01;99922.75;4307031;33;34047;-61
2023/06/22 01:14:46;;;;;;;11.12;5.47;;;;;;;27.88;49.01;99907.38;4319088;33;34334;-61
2023/06/22 01:17:16;;;;;;;8.65;5.30;;;;;;;27.88;49.02;99902.72;4307158;33;33595;-61
2023/06/22 01:19:55;;;;;;;11.50;5.55;;;;;;;27.87;49.02;99894.75;4319254;33;33800;-61
2023/06/22 01:22:25;;;;;;;10.45;5.43;;;;;;;27.87;48.96;99894.75;4319277;33;33824;-61
2023/06/22 01:25:13;;;;;;;8.90;4.85;;;;;;;27.86;48.90;99895.84;4331987;33;34840;-61
2023/06/22 01:28:01;;;;;;;9.23;5.43;;;;;;;27.88;48.86;99894.47;4331907;33;33591;-61
2023/06/22 01:30:29;;;;;;;8.73;5.05;;;;;;;27.85;48.92;99894.19;4331994;33;33985;-61
2023/06/22 01:32:57;;;;;;;12.25;5.03;;;;;;;27.82;48.91;99889.19;4318860;33;33887;-60
2023/06/22 01:35:25;;;;;;;9.52;4.90;;;;;;;27.81;48.90;99893.84;4331763;33;34890;-60
2023/06/22 01:37:53;;;;;;;13.82;5.53;;;;;;;27.80;48.90;99894.94;4306250;33;34673;-60
2023/06/22 01:40:20;;;;;;;10.02;4.80;;;;;;;27.81;48.90;99891.12;4306590;33;34553;-61
2023/06/22 01:42:50;;;;;;;10.05;4.85;;;;;;;27.80;48.89;99885.91;4318658;33;32447;-61
2023/06/22 01:45:18;;;;;;;8.15;4.82;;;;;;;27.79;48.84;99887.78;4294657;33;34352;-60
2023/06/22 01:47:45;;;;;;;11.10;5.32;;;;;;;27.79;48.83;99884.22;4331826;33;33779;-61
2023/06/22 01:50:13;;;;;;;9.05;5.50;;;;;;;27.78;48.83;99888.03;4318373;33;34538;-60
2023/06/22 01:52:41;;;;;;;9.45;5.32;;;;;;;27.77;48.83;99891.88;4331970;33;34061;-60
2023/06/22 01:55:08;;;;;;;8.30;5.22;;;;;;;27.75;48.87;99892.13;4331611;33;35047;-60
2023/06/22 01:57:36;;;;;;;10.73;5.45;;;;;;;27.75;48.91;99894.06;4331725;33;32893;-61
2023/06/22 02:00:07;;;;;;;8.73;5.03;;;;;;;27.75;48.93;99900.38;4318524;33;33626;-61
2023/06/22 02:02:44;;;;;;;10.38;5.18;;;;;;;27.73;48.99;99899.75;4331406;33;33605;-60
2023/06/22 02:05:12;;;;;;;8.93;5.15;;;;;;;27.72;48.99;99898.12;4318331;33;34193;-60
2023/06/22 02:07:44;;;;;;;14.50;5.12;;;;;;;27.73;48.94;99893.47;4318456;33;34190;-61
2023/06/22 02:10:13;;;;;;;10.35;5.70;;;;;;;27.72;48.96;99900.84;4306453;33;34594;-60
2023/06/22 02:12:40;;;;;;;9.38;5.68;;;;;;;27.71;48.95;99894.56;4306388;33;33785;-61
2023/06/22 02:15:09;;;;;;;7.82;5.10;;;;;;;27.71;48.96;99902.78;4318180;33;35537;-61
2023/06/22 02:17:37;;;;;;;10.48;5.55;;;;;;;27.69;49.01;99902.16;4331448;33;33876;-63
2023/06/22 02:20:07;;;;;;;11.63;5.15;;;;;;;27.70;48.97;99897.53;4306182;33;34107;-61
2023/06/22 02:22:35;;;;;;;9.60;5.07;;;;;;;27.69;48.98;99912.28;4331088;33;34910;-61
2023/06/22 02:25:03;;;;;;;9.30;5.32;;;;;;;27.69;48.93;99915.03;4331250;33;34249;-63
2023/06/22 02:27:31;;;;;;;8.93;4.90;;;;;;;27.68;48.92;99905.97;4318110;33;33629;-61
2023/06/22 02:29:58;;;;;;;11.02;5.12;;;;;;;27.67;48.91;99911.72;4331280;33;34882;-63
2023/06/22 02:32:26;;;;;;;12.20;5.62;;;;;;;27.66;48.93;99913.62;4331153;33;34097;-64
2023/06/22 02:34:54;;;;;;;10.95;5.20;;;;;;;27.67;48.94;99922.69;4331145;33;34179;-65
2023/06/22 02:37:24;;;;;;;;;;;;;;;27.66;48.90;99923.78;4331172;33;33597;-65
2023/06/22 02:39:52;;;;;;;9.10;5.18;;;;;;;27.76;48.61;99931.34;4331191;33;33658;-64
2023/06/22 02:42:21;;;;;;;12.52;5.93;;;;;;;27.68;48.77;99933.37;4317485;33;34883;-66
2023/06/22 02:44:49;;;;;;;10.70;5.57;;;;;;;27.65;48.85;99933.06;4330657;33;34289;-61
2023/06/22 02:47:16;;;;;;;11.65;5.15;;;;;;;27.63;48.85;99938.81;4330830;33;33531;-61
2023/06/22 02:49:45;;;;;;;11.63;5.07;;;;;;;27.62;48.88;99931.66;4332176;33;34093;-60
2023/06/22 02:52:13;;;;;;;11.38;5.15;;;;;;;27.61;48.89;99931.94;4320044;33;34040;-60
2023/06/22 02:54:40;;;;;;;11.55;5.82;;;;;;;27.62;48.83;99942.63;4333025;33;34298;-61
2023/06/22 02:57:13;;;;;;;10.73;5.50;;;;;;;27.61;48.86;99938.22;4333299;33;33641;-61
2023/06/22 02:59:41;;;;;;;8.98;5.30;;;;;;;27.61;48.86;99940.16;4332997;33;34067;-60
2023/06/22 03:02:10;;;;;;;12.43;5.03;;;;;;;27.61;48.85;99942.88;4332983;33;33259;-60
2023/06/22 03:04:38;;;;;;;10.73;4.85;;;;;;;27.59;48.82;99932.16;4346527;33;34310;-60
2023/06/22 03:07:05;;;;;;;9.45;5.57;;;;;;;27.59;48.84;99923.09;4347654;33;33577;-60
2023/06/22 03:09:34;;;;;;;11.52;5.00;;;;;;;27.59;48.86;99923.09;4347714;33;34089;-61
2023/06/22 03:12:02;;;;;;;11.27;4.97;;;;;;;27.59;48.83;99920.38;4347511;33;33825;-60
2023/06/22 03:14:30;;;;;;;11.02;5.05;;;;;;;27.58;48.83;99927.75;4347813;33;34294;-60
2023/06/22 03:17:02;;;;;;;10.73;5.80;;;;;;;27.58;48.82;99927.75;4347708;33;34514;-60
2023/06/22 03:19:31;;;;;;;10.43;5.62;;;;;;;27.57;48.82;99926.09;4347499;33;34746;-61
2023/06/22 03:21:59;;;;;;;10.68;5.20;;;;;;;27.57;48.81;99923.38;4347632;33;34077;-61
2023/06/22 03:24:29;;;;;;;10.52;5.20;;;;;;;27.57;48.79;99936.25;4347836;33;33897;-61
2023/06/22 03:26:57;;;;;;;10.85;5.40;;;;;;;27.56;48.80;99927.19;4347490;33;34363;-61
2023/06/22 03:29:25;;;;;;;7.57;4.82;;;;;;;27.56;48.76;99915.38;4347530;33;33832;-61
2023/06/22 03:31:56;;;;;;;11.45;4.90;;;;;;;27.55;48.77;99914.56;4347510;33;34040;-60
2023/06/22 03:34:24;;;;;;;10.10;4.75;;;;;;;27.54;48.80;99918.38;4347379;33;35115;-61
2023/06/22 03:36:52;;;;;;;13.65;4.80;;;;;;;27.54;48.82;99912.91;4347773;33;33813;-61
2023/06/22 03:39:20;;;;;;;10.98;6.00;;;;;;;27.54;48.81;99920.28;4347467;33;33991;-61
2023/06/22 03:41:48;;;;;;;9.43;5.07;;;;;;;27.54;48.76;99925.78;4347378;33;33870;-61
2023/06/22 03:44:15;;;;;;;9.35;4.78;;;;;;;27.54;48.76;99926.59;4347236;33;34191;-61
2023/06/22 03:46:43;;;;;;;11.63;5.22;;;;;;;27.53;48.78;99918.63;4347671;33;34557;-61
2023/06/22 03:49:11;;;;;;;12.27;5.78;;;;;;;27.53;48.77;99924.13;4347444;33;34712;-60
2023/06/22 03:51:39;;;;;;;9.30;5.28;;;;;;;27.52;48.76;99920.56;4347362;33;34146;-60
2023/06/22 03:54:06;;;;;;;13.43;5.85;;;;;;;27.53;48.76;99926.88;4347406;33;35053;-60
2023/06/22 03:56:34;;;;;;;8.00;4.90;;;;;;;27.53;48.76;99921.38;4347420;33;34443;-60
2023/06/22 03:59:01;;;;;;;14.13;5.35;;;;;;;27.52;48.77;99920.56;4347380;33;34518;-60
2023/06/22 04:01:29;;;;;;;12.05;5.28;;;;;;;27.52;48.78;99914.25;4333754;33;34963;-61
2023/06/22 04:03:57;;;;;;;8.55;5.50;;;;;;;27.52;48.80;99919.72;4342318;32;34950;-61
2023/06/22 04:06:24;;;;;;;13.68;5.50;;;;;;;27.52;48.83;99920.56;4347297;33;33665;-62
2023/06/22 04:08:52;;;;;;;14.00;5.43;;;;;;;27.52;48.85;99916.97;4347132;33;33794;-62
2023/06/22 04:11:20;;;;;;;12.52;5.35;;;;;;;27.53;48.80;99924.13;4347318;33;34166;-62
2023/06/22 04:13:48;;;;;;;17.02;5.30;;;;;;;27.53;48.73;99924.94;4333981;33;34116;-63
2023/06/22 04:16:16;;;;;;;8.07;5.47;;;;;;;27.54;48.65;99928.50;4347177;33;33492;-62
2023/06/22 04:18:44;;;;;;;11.38;5.32;;;;;;;27.54;48.61;99920.28;4347096;33;34440;-63
2023/06/22 04:21:11;;;;;;;12.15;5.70;;;;;;;27.54;48.56;99917.56;4347258;33;34878;-62
2023/06/22 04:23:39;;;;;;;12.20;5.43;;;;;;;27.55;48.53;99921.94;4346968;33;34018;-62
2023/06/22 04:26:06;;;;;;;8.25;4.60;;;;;;;27.56;48.48;99923.59;4347257;33;34656;-62
2023/06/22 04:28:35;;;;;;;10.88;5.35;;;;;;;27.57;48.46;99919.81;4347207;33;33891;-64
2023/06/22 04:31:02;;;;;;;9.95;4.87;;;;;;;27.56;48.43;99920.84;4347293;33;34004;-65
2023/06/22 04:33:30;;;;;;;8.57;4.72;;;;;;;27.57;48.42;99926.09;4347096;33;34563;-65
2023/06/22 04:36:00;;;;;;;8.93;5.18;;;;;;;27.57;48.43;99922.53;4333758;33;33819;-65
2023/06/22 04:38:28;;;;;;;9.15;5.43;;;;;;;27.58;48.43;99937.91;4333744;33;33786;-65
2023/06/22 04:40:56;;;;;;;8.70;4.82;;;;;;;27.59;48.43;99940.37;4347134;33;33997;-64
2023/06/22 04:43:23;;;;;;;12.00;5.43;;;;;;;27.59;48.37;99942.28;4346876;33;34728;-64
2023/06/22 04:45:52;;;;;;;12.43;5.47;;;;;;;27.59;48.34;99943.13;4346793;33;33854;-64
2023/06/22 04:48:20;;;;;;;9.73;5.10;;;;;;;27.59;48.32;99956.81;4347056;33;34048;-65
2023/06/22 04:50:47;;;;;;;10.10;5.43;;;;;;;27.60;48.27;99960.41;4347079;33;34704;-65
2023/06/22 04:53:15;;;;;;;12.10;5.07;;;;;;;27.59;48.26;99956.81;4333504;33;35154;-62
2023/06/22 04:55:45;;;;;;;10.23;5.60;;;;;;;27.59;48.35;99959.56;4346940;33;33833;-62
2023/06/22 04:58:13;;;;;;;11.57;5.25;;;;;;;27.61;48.37;99962.06;4346954;33;34949;-62
2023/06/22 05:00:40;;;;;;;12.25;6.20;;;;;;;27.61;48.32;99965.66;4349752;32;33709;-63
2023/06/22 05:03:11;;;;;;;9.93;5.43;;;;;;;27.61;48.39;99965.66;4352985;32;34292;-62
2023/06/22 05:05:47;;;;;;;8.82;4.82;;;;;;;27.59;48.54;99965.06;4347833;32;33438;-63
2023/06/22 05:08:15;;;;;;;12.13;5.30;;;;;;;27.60;48.55;99969.44;4333573;33;33814;-62
2023/06/22 05:10:42;;;;;;;11.23;4.97;;;;;;;27.61;48.57;99978.53;4346790;33;34065;-62
2023/06/22 05:13:30;;;;;;;12.23;5.62;;;;;;;27.61;48.62;99976.63;4346631;33;34408;-63
2023/06/22 05:16:01;;;;;;;8.88;5.07;;;;;;;27.63;48.61;99976.34;4346870;33;33715;-62
2023/06/22 05:18:29;;;;;;;11.85;5.40;;;;;;;27.61;48.63;99976.63;4333772;33;34091;-62
2023/06/22 05:20:58;;;;;;;7.43;4.40;;;;;;;27.62;48.66;99989.22;4346836;33;33553;-62
2023/06/22 05:23:25;;;;;;;11.80;5.15;;;;;;;27.62;48.66;99991.97;4346725;33;33804;-63
2023/06/22 05:25:54;;;;;;;11.88;5.25;;;;;;;27.62;48.47;99988.41;4346582;33;33459;-62
2023/06/22 05:28:22;;;;;;;11.23;4.85;;;;;;;27.63;48.36;99998.28;4346977;33;34023;-63
2023/06/22 05:30:50;;;;;;;9.27;4.82;;;;;;;27.63;48.40;99985.41;4346663;33;34808;-64
2023/06/22 05:33:18;;;;;;;11.48;5.28;;;;;;;27.62;48.55;99988.41;4346636;32;34153;-63
2023/06/22 05:35:46;;;;;;;9.02;5.12;;;;;;;27.64;48.58;99991.72;4359204;32;33463;-63
2023/06/22 05:38:14;;;;;;;7.82;4.70;;;;;;;27.64;48.64;100000.75;4361478;32;34125;-62
2023/06/22 05:40:41;;;;;;;11.27;5.00;;;;;;;27.65;48.67;100004.31;4361278;32;33539;-62
2023/06/22 05:43:09;;;;;;;11.68;5.30;;;;;;;27.65;48.70;100002.44;4361177;32;34295;-63
2023/06/22 05:45:36;;;;;;;12.70;5.60;;;;;;;27.65;48.64;99999.72;4361260;32;33657;-62
2023/06/22 05:48:04;;;;;;;10.45;5.60;;;;;;;27.65;48.47;100002.44;4361071;32;34850;-62
2023/06/22 05:50:32;;;;;;;10.55;5.60;;;;;;;27.65;48.39;100005.19;4361193;32;33882;-62
2023/06/22 05:53:00;;;;;;;11.55;5.50;;;;;;;27.66;48.42;100006.00;4361172;32;33974;-62
2023/06/22 05:55:28;;;;;;;10.13;5.57;;;;;;;27.63;48.62;100001.84;4361338;32;33478;-63
2023/06/22 05:57:55;;;;;;;11.12;5.55;;;;;;;27.62;48.61;100011.16;4361361;32;33892;-62
2023/06/22 06:00:23;;;;;;;11.10;5.57;;;;;;;27.63;48.60;100004.59;4361191;32;34947;-62
2023/06/22 06:02:51;;;;;;;12.85;5.80;;;;;;;27.62;48.61;100004.84;4358338;32;34696;-62
2023/06/22 07:09:49;;;;;;;8.65;4.85;;;;;;;27.74;48.78;99972.69;4505026;27;20166;-62
2023/06/22 07:12:16;;;;;;;8.93;5.12;;;;;;;27.77;48.74;99974.12;4362283;32;33376;-63
2023/06/22 07:14:44;;;;;;;8.65;4.75;;;;;;;27.76;48.73;99975.22;4362269;32;33851;-64
2023/06/22 07:17:11;;;;;;;8.48;4.95;;;;;;;27.77;48.69;99977.69;4362593;32;34128;-62
2023/06/22 07:19:40;;;;;;;8.73;4.70;;;;;;;27.78;48.66;99973.03;4362147;32;34924;-62
2023/06/22 07:22:07;;;;;;;10.23;5.18;;;;;;;27.80;48.63;99970.87;4347490;33;34450;-62
2023/06/22 07:24:35;;;;;;;10.70;4.95;;;;;;;27.81;48.63;99975.28;4360712;32;34856;-64
2023/06/22 07:27:03;;;;;;;9.27;4.85;;;;;;;27.82;48.60;99975.03;4362220;32;33857;-66
2023/06/22 07:29:31;;;;;;;9.20;4.85;;;;;;;27.83;48.62;99981.34;4361999;32;33751;-64
2023/06/22 07:32:00;;;;;;;11.40;4.97;;;;;;;27.83;48.63;99976.69;4361801;32;33926;-64
2023/06/22 07:34:29;;;;;;;7.93;4.87;;;;;;;27.85;48.63;99970.97;4359207;32;34937;-65
2023/06/22 07:36:56;;;;;;;10.48;4.68;;;;;;;27.85;48.61;99974.53;4351643;32;33823;-65
2023/06/22 07:39:26;;;;;;;9.88;4.82;;;;;;;27.87;48.62;99974.28;4339080;32;34264;-65
2023/06/22 07:41:53;;;;;;;12.18;4.80;;;;;;;27.87;48.62;99977.00;4360272;32;33676;-64
2023/06/22 07:44:21;;;;;;;9.40;5.03;;;;;;;27.88;48.60;99974.00;4360396;32;33775;-64
2023/06/22 07:46:49;;;;;;;8.15;4.78;;;;;;;27.88;48.62;99974.00;4361140;32;34178;-65
2023/06/22 07:49:17;;;;;;;10.23;4.50;;;;;;;27.88;48.63;99967.69;4361355;32;34424;-64
2023/06/22 07:51:44;;;;;;;8.73;5.43;;;;;;;27.88;48.63;99964.94;4361951;32;33421;-65
2023/06/22 07:54:12;;;;;;;9.48;4.43;;;;;;;27.90;48.61;99971.03;4347815;32;34134;-64
2023/06/22 07:56:39;;;;;;;7.95;4.68;;;;;;;27.91;48.59;99970.78;4347251;33;34426;-65
2023/06/22 07:59:07;;;;;;;11.38;5.30;;;;;;;27.91;48.58;99948.84;4347239;33;33783;-65
2023/06/22 08:01:34;;;;;;;9.95;5.20;;;;;;;27.91;48.58;99954.31;4347124;33;33803;-65
2023/06/22 08:04:02;;;;;;;7.75;4.68;;;;;;;27.92;48.58;99950.47;4347210;33;33984;-65
2023/06/22 08:06:30;;;;;;;9.60;5.37;;;;;;;27.93;48.52;99945.81;4347005;33;34208;-64
2023/06/22 08:08:58;;;;;;;7.95;4.95;;;;;;;27.92;48.52;99947.75;4346935;33;33868;-65
2023/06/22 08:11:27;;;;;;;11.05;5.75;;;;;;;27.94;48.50;99942.03;4347109;33;34683;-65
2023/06/22 08:13:55;;;;;;;7.60;5.20;;;;;;;27.95;48.50;99944.50;4347049;33;34915;-65
2023/06/22 08:16:23;;;;;;;8.25;5.80;;;;;;;27.95;48.50;99954.66;4346928;33;34361;-65
2023/06/22 08:18:50;;;;;;;6.95;5.35;;;;;;;27.95;48.50;99949.16;4347109;33;34556;-64
2023/06/22 08:21:18;;;;;;;8.93;6.72;;;;;;;27.97;48.50;99944.25;4346725;33;34050;-65
2023/06/22 08:23:45;;;;;;;13.77;6.47;;;;;;;27.96;48.52;99940.66;4346870;33;34858;-63
2023/06/22 08:26:14;;;;;;;9.27;5.97;;;;;;;27.99;48.51;99946.75;4347013;33;33765;-65
2023/06/22 08:28:42;;;;;;;8.68;5.90;;;;;;;27.97;48.52;99939.59;4348533;32;33841;-65
2023/06/22 08:31:12;;;;;;;8.07;6.15;;;;;;;27.99;48.52;99946.75;4361509;32;33969;-63
2023/06/22 08:33:40;;;;;;;8.60;6.35;;;;;;;27.99;48.52;99942.09;4361787;32;34023;-63
2023/06/22 08:36:16;;;;;;;10.38;6.07;;;;;;;28.02;48.50;99940.75;4361633;32;34987;-63
2023/06/22 08:38:44;;;;;;;8.68;6.55;;;;;;;28.02;48.52;99927.84;4361781;32;34440;-65
2023/06/22 08:41:12;;;;;;;9.75;6.90;;;;;;;28.02;48.52;99952.53;4361705;32;33957;-65
2023/06/22 08:43:39;;;;;;;8.77;6.40;;;;;;;28.03;48.48;99946.00;4361858;32;33697;-68
2023/06/22 09:11:20;;;;;;;12.63;7.20;;;;;;;28.05;48.60;99927.34;5142304;27;21296;-64
2023/06/22 09:13:48;;;;;;;12.55;7.28;;;;;;;28.03;48.52;99921.31;4360507;32;31948;-65
2023/06/22 09:16:15;;;;;;;12.68;6.70;;;;;;;28.02;48.48;99933.34;4361520;32;34828;-67
2023/06/22 09:18:48;;;;;;;9.60;6.72;;;;;;;28.02;48.41;99925.09;4361415;32;34038;-61
2023/06/22 09:21:16;;;;;;;10.32;6.05;;;;;;;28.00;48.38;99921.81;4348376;32;34415;-61
2023/06/22 09:23:45;;;;;;;10.50;7.32;;;;;;;28.02;48.32;99916.87;4361498;32;34416;-61
2023/06/22 09:26:13;;;;;;;11.48;7.18;;;;;;;28.02;48.26;99927.03;4361416;32;33947;-61
2023/06/22 09:28:40;;;;;;;10.15;6.47;;;;;;;28.02;48.21;99914.12;4348036;32;34136;-62
2023/06/22 09:31:08;;;;;;;11.18;5.95;;;;;;;28.00;48.18;99905.34;4361019;32;34309;-65
2023/06/22 09:33:37;;;;;;;9.82;6.75;;;;;;;28.00;48.15;99919.06;4360801;32;33758;-68
2023/06/22 09:36:07;;;;;;;;;;;;;;;28.02;48.11;99916.06;4361704;32;33777;-61
2023/06/22 09:38:37;;;;;;;9.57;6.12;;;;;;;28.11;47.85;99907.13;4361413;32;34381;-66
2023/06/22 09:41:05;;;;;;;10.63;6.85;;;;;;;28.03;47.95;99912.25;4361359;32;33553;-66
2023/06/22 09:43:35;;;;;;;9.05;6.55;;;;;;;28.00;48.01;99910.00;4361400;32;33286;-64
2023/06/22 09:46:03;;;;;;;10.35;6.12;;;;;;;27.98;48.02;99910.28;4361303;32;34249;-62
2023/06/22 09:48:31;;;;;;;8.85;6.62;;;;;;;27.99;47.98;99902.87;4361311;32;33806;-64
2023/06/22 09:50:58;;;;;;;9.98;7.07;;;;;;;27.99;47.97;99900.13;4357826;32;35003;-64
2023/06/22 09:53:26;;;;;;;9.88;6.95;;;;;;;27.97;47.95;99900.34;4361052;32;34683;-64
2023/06/22 09:55:53;;;;;;;8.15;6.53;;;;;;;27.97;47.93;99897.62;4361239;32;33840;-63
2023/06/22 09:58:21;;;;;;;11.05;6.25;;;;;;;27.98;47.88;99904.78;4360596;32;34054;-68
2023/06/22 10:00:49;;;;;;;7.97;6.07;;;;;;;27.97;47.87;99909.41;4362744;32;34100;-61
2023/06/22 10:03:16;;;;;;;9.40;6.07;;;;;;;27.97;47.83;99905.84;4362930;32;33812;-63
2023/06/22 10:05:44;;;;;;;12.37;6.45;;;;;;;27.97;47.80;99909.41;4362768;32;33809;-65
2023/06/22 10:08:13;;;;;;;11.45;6.68;;;;;;;27.97;47.78;99903.09;4362918;32;34896;-65
2023/06/22 10:10:41;;;;;;;10.60;6.50;;;;;;;27.97;47.74;99901.19;4362758;32;33959;-64
2023/06/22 10:13:12;;;;;;;8.57;5.95;;;;;;;27.97;47.72;99897.62;4362215;32;34608;-64
2023/06/22 10:15:42;;;;;;;9.13;6.50;;;;;;;27.97;47.72;99903.94;4362988;32;34660;-64
2023/06/22 10:18:10;;;;;;;9.57;6.65;;;;;;;27.95;47.70;99906.09;4363153;32;34002;-63
2023/06/22 10:20:37;;;;;;;10.00;6.10;;;;;;;27.99;47.63;99902.87;4362674;32;34341;-70
2023/06/22 10:23:05;;;;;;;9.20;6.03;;;;;;;27.96;47.63;99895.97;4363142;32;33868;-64
2023/06/22 10:25:32;;;;;;;8.23;6.62;;;;;;;27.96;47.62;99899.53;4362588;32;33832;-68
2023/06/22 10:28:00;;;;;;;10.73;6.93;;;;;;;27.97;47.61;99897.62;4362729;32;34213;-64
2023/06/22 10:30:29;;;;;;;8.57;5.87;;;;;;;27.95;47.58;99897.88;4362845;32;34344;-67
2023/06/22 10:32:56;;;;;;;10.10;6.95;;;;;;;27.96;47.54;99898.72;4361360;32;33805;-64
2023/06/22 10:35:23;;;;;;;9.52;6.65;;;;;;;27.96;47.55;99890.47;4362718;32;34011;-64
2023/06/22 10:37:52;;;;;;;10.73;6.40;;;;;;;27.96;47.52;99898.72;4362815;32;33549;-63
2023/06/22 10:40:19;;;;;;;9.23;6.57;;;;;;;27.96;47.50;99895.97;4362318;32;34192;-64
2023/06/22 10:42:47;;;;;;;9.15;7.00;;;;;;;27.95;47.48;99892.41;4362600;32;34567;-64
2023/06/22 10:45:15;;;;;;;6.87;5.78;;;;;;;27.96;47.47;99893.22;4362722;32;33944;-64
2023/06/22 10:47:42;;;;;;;9.88;6.22;;;;;;;27.95;47.45;99891.56;4362720;32;34111;-65
2023/06/22 10:50:10;;;;;;;8.27;5.72;;;;;;;27.95;47.44;99884.16;4349114;32;34207;-64
2023/06/22 10:52:38;;;;;;;8.80;6.00;;;;;;;27.95;47.43;99886.09;4362697;32;33797;-64
2023/06/22 10:55:06;;;;;;;8.57;5.82;;;;;;;27.95;47.41;99886.91;4362692;32;33902;-64
2023/06/22 10:57:33;;;;;;;7.78;5.80;;;;;;;27.94;47.42;99878.94;4362604;32;34746;-65
2023/06/22 11:41:46;;;;;;;8.68;6.05;;;;;;;27.89;47.30;99867.91;4922934;27;20103;-63
2023/06/22 11:44:13;;;;;;;8.80;6.05;;;;;;;27.89;47.27;99862.44;4362332;32;33806;-67
2023/06/22 11:46:41;;;;;;;7.80;5.70;;;;;;;27.89;47.28;99851.47;4362211;32;34829;-63
2023/06/22 11:49:08;;;;;;;8.73;5.97;;;;;;;27.88;47.27;99856.09;4362220;32;34632;-63
2023/06/22 11:51:36;;;;;;;8.48;5.50;;;;;;;27.90;47.22;99850.38;4362269;32;33661;-64
2023/06/22 11:54:04;;;;;;;7.22;5.32;;;;;;;27.90;47.20;99853.12;4348854;32;34755;-63
2023/06/22 11:56:32;;;;;;;7.40;5.82;;;;;;;27.90;47.18;99850.38;4362515;32;34459;-66
2023/06/22 11:59:00;;;;;;;8.33;6.40;;;;;;;27.90;47.18;99844.88;4337042;32;34163;-64
2023/06/22 12:01:28;;;;;;;6.87;5.43;;;;;;;27.92;47.12;99845.44;4348756;32;33567;-63
2023/06/22 12:03:55;;;;;;;9.07;6.20;;;;;;;27.92;47.12;99848.19;4348785;32;33841;-64
2023/06/22 12:06:23;;;;;;;6.82;5.55;;;;;;;27.91;47.09;99847.38;4362377;32;33970;-64
2023/06/22 12:08:51;;;;;;;7.62;5.90;;;;;;;27.93;47.05;99844.34;4362034;32;34734;-65
2023/06/22 12:11:18;;;;;;;9.18;5.90;;;;;;;27.92;47.07;99845.44;4362257;32;34557;-63
2023/06/22 12:13:46;;;;;;;7.80;6.03;;;;;;;27.92;47.05;99839.97;4362452;32;33993;-64
2023/06/22 12:16:13;;;;;;;6.87;5.35;;;;;;;27.93;47.03;99834.25;4361893;32;34820;-65
2023/06/22 12:18:41;;;;;;;7.72;5.93;;;;;;;27.92;47.03;99826.25;4348637;32;32978;-64
2023/06/22 12:21:08;;;;;;;8.25;5.57;;;;;;;27.91;47.03;99828.16;4336411;32;34296;-63
2023/06/22 12:23:36;;;;;;;7.93;5.78;;;;;;;27.92;47.02;99823.50;4361898;32;34081;-64
2023/06/22 12:26:04;;;;;;;6.95;5.45;;;;;;;27.92;47.00;99820.78;4362126;32;35487;-63
2023/06/22 12:28:31;;;;;;;6.85;5.22;;;;;;;27.93;46.98;99819.69;4361985;32;33672;-63
2023/06/22 12:30:59;;;;;;;8.18;5.85;;;;;;;27.92;46.98;99821.59;4348276;32;33481;-64
2023/06/22 12:33:26;;;;;;;6.55;5.35;;;;;;;27.93;46.95;99822.41;4362048;32;33856;-64
2023/06/22 12:35:54;;;;;;;7.03;5.15;;;;;;;27.93;46.95;99811.44;4362053;32;34146;-64
2023/06/22 12:38:22;;;;;;;9.52;5.78;;;;;;;27.92;46.95;99801.56;4361911;32;33847;-65
2023/06/22 12:40:49;;;;;;;6.75;5.35;;;;;;;27.93;46.95;99811.44;4361945;32;34298;-63
2023/06/22 12:43:17;;;;;;;7.18;5.43;;;;;;;27.93;46.94;99811.44;4361862;32;34393;-65
2023/06/22 12:45:44;;;;;;;7.57;6.00;;;;;;;27.93;46.92;99808.72;4361763;32;33954;-63
2023/06/22 12:48:12;;;;;;;6.70;5.40;;;;;;;27.93;46.92;99811.44;4348456;32;34148;-63
2023/06/22 12:50:40;;;;;;;7.30;5.65;;;;;;;27.92;46.91;99807.88;4361976;32;33819;-63
2023/06/22 12:53:07;;;;;;;6.53;5.25;;;;;;;27.93;46.90;99808.72;4361794;32;34780;-64
2023/06/22 12:55:35;;;;;;;7.10;5.53;;;;;;;27.92;46.88;99813.38;4361977;32;34500;-63
2023/06/22 12:58:03;;;;;;;7.43;5.60;;;;;;;27.93;46.87;99803.22;4348634;32;33648;-63
2023/06/22 13:00:30;;;;;;;9.02;5.90;;;;;;;27.93;46.85;99805.97;4361783;32;33636;-63
2023/06/22 13:02:59;;;;;;;7.37;5.53;;;;;;;27.94;46.85;99802.16;4361988;32;34132;-64
2023/06/22 13:05:26;;;;;;;8.13;5.78;;;;;;;27.93;46.83;99795.84;4361828;32;33900;-63
2023/06/22 13:07:54;;;;;;;6.85;5.50;;;;;;;27.93;46.82;99803.22;4361375;32;33841;-69
2023/06/22 13:10:22;;;;;;;8.02;5.90;;;;;;;27.92;46.82;99796.91;4361727;32;32840;-63
2023/06/22 13:12:50;;;;;;;7.70;5.72;;;;;;;27.94;46.79;99791.19;4361710;32;33738;-65
2023/06/22 13:15:17;;;;;;;6.70;5.55;;;;;;;27.93;46.79;99787.63;4361547;32;34959;-64
2023/06/22 13:17:45;;;;;;;6.75;5.25;;;;;;;27.94;46.78;99788.44;4361672;32;34654;-64
2023/06/22 13:20:12;;;;;;;7.82;6.10;;;;;;;27.94;46.78;99785.72;4361644;32;33578;-65
2023/06/22 13:22:42;;;;;;;7.18;5.97;;;;;;;27.94;46.78;99774.75;4361784;32;33973;-63
2023/06/22 13:25:12;;;;;;;7.40;5.10;;;;;;;27.94;46.76;99780.22;4347200;32;33530;-65
2023/06/22 13:27:41;;;;;;;7.40;5.25;;;;;;;27.94;46.74;99769.25;4333606;32;34269;-71
2023/06/22 13:30:09;;;;;;;7.12;5.37;;;;;;;27.94;46.73;99772.00;4343416;32;33251;-71
2023/06/22 13:32:43;;;;;;;7.78;5.85;;;;;;;27.94;46.75;99778.31;4347455;32;33774;-64
2023/06/22 13:35:11;;;;;;;7.60;5.10;;;;;;;27.95;46.88;99773.66;4360628;32;33978;-65
2023/06/22 13:37:39;;;;;;;6.50;5.10;;;;;;;27.95;46.90;99773.66;4323304;32;33905;-73
2023/06/22 13:40:08;;;;;;;7.05;5.12;;;;;;;27.96;46.88;99772.56;4347443;32;33493;-71
2023/06/22 13:42:35;;;;;;;6.60;5.25;;;;;;;27.97;46.87;99765.97;4340389;32;33952;-69
2023/06/22 13:45:03;;;;;;;8.48;5.70;;;;;;;27.97;46.92;99766.81;4362165;32;33468;-72
2023/06/22 13:47:31;;;;;;;7.90;5.40;;;;;;;28.00;46.95;99759.16;4375268;32;34282;-65